Asheville, North Carolina
Current Conditions -  °F | °C
As of 5:54 PM on Wednesday 17 Dec 2014 (Local Time) from KAVL Reporting Station
Clear Clear  
Wind Chill: 35°   Ceiling: Unl
Heat Index: 43°   Visibility: 10mi
Dew Point: 30°   Wind: 16mph
Humidity: 60%   Direction: 340°NNW
Pressure: 30.11"   Gusts: NA
Location:  35.6°N, 82.55°W
Report Text: KAVL 172254Z 34014KT 10SM CLR 06/M01 A3011 RMK AO2 SLP198 T00611011
Loading
Personal Weather Stations






























Interactive Weather Map New forecast layout! Learn more

10-Day Weather Forecast

Advertisements
Track Severe Weather on mobile